createdAt,value
2018-06-24T00:01:38.190Z,10.03
2018-06-24T00:05:11.227Z,10.57
2018-06-24T00:08:44.508Z,10.43
2018-06-24T00:12:17.763Z,10.20
2018-06-24T00:15:51.043Z,10.90
2018-06-24T00:19:24.298Z,10.53
2018-06-24T00:22:58.200Z,11.50
2018-06-24T00:26:31.464Z,10.53
2018-06-24T00:30:05.244Z,11.83
2018-06-24T00:33:38.504Z,10.87
2018-06-24T00:37:11.777Z,10.60
2018-06-24T00:40:45.062Z,12.37
2018-06-24T00:44:18.816Z,12.00
2018-06-24T00:47:51.816Z,10.97
2018-06-24T00:51:25.088Z,11.60
2018-06-24T00:54:58.303Z,12.17
2018-06-24T00:58:31.559Z,11.73
2018-06-24T01:02:04.791Z,12.70
2018-06-24T01:05:38.094Z,11.73
2018-06-24T01:09:11.320Z,12.50
2018-06-24T01:12:44.314Z,11.33
2018-06-24T01:16:17.543Z,11.70
2018-06-24T01:19:50.782Z,13.37
2018-06-24T01:23:24.011Z,11.23
2018-06-24T01:26:57.249Z,13.13
2018-06-24T01:30:30.483Z,12.90
2018-06-24T01:34:03.719Z,13.20
2018-06-24T01:37:36.988Z,13.30
2018-06-24T01:41:10.283Z,13.57
2018-06-24T01:44:43.529Z,11.97
2018-06-24T01:48:16.769Z,12.00
2018-06-24T01:51:50.005Z,12.40
2018-06-24T01:55:23.006Z,12.20
2018-06-24T01:58:56.238Z,12.33
2018-06-24T02:02:29.474Z,12.30
2018-06-24T02:06:02.730Z,12.33
2018-06-24T02:09:35.992Z,12.00
2018-06-24T02:13:09.006Z,11.70
2018-06-24T02:16:42.275Z,12.40
2018-06-24T02:20:15.496Z,11.30
2018-06-24T02:23:48.476Z,12.03
2018-06-24T02:27:21.715Z,10.87
2018-06-24T02:30:54.989Z,12.33
2018-06-24T02:34:28.275Z,13.27
2018-06-24T02:38:02.505Z,11.13
2018-06-24T02:41:35.742Z,11.30
2018-06-24T02:45:09.015Z,12.20
2018-06-24T02:48:42.676Z,11.20
2018-06-24T02:52:15.927Z,11.60
2018-06-24T02:55:48.930Z,10.63
2018-06-24T02:59:22.176Z,12.60
2018-06-24T03:02:55.440Z,12.10
2018-06-24T03:06:28.723Z,11.70
2018-06-24T03:10:01.973Z,9.70
2018-06-24T03:13:35.208Z,12.37
2018-06-24T03:17:08.215Z,10.60
2018-06-24T03:20:42.016Z,12.27
2018-06-24T03:24:15.251Z,11.87
2018-06-24T03:27:48.609Z,13.40
2018-06-24T03:31:21.859Z,12.60
2018-06-24T03:34:55.096Z,12.63
2018-06-24T03:38:28.544Z,11.80
2018-06-24T03:42:01.782Z,12.10
2018-06-24T03:45:35.267Z,12.30
2018-06-24T03:49:08.517Z,12.17
2018-06-24T03:52:41.760Z,11.90
2018-06-24T03:56:15.047Z,12.13
2018-06-24T03:59:48.305Z,13.00
2018-06-24T04:03:21.560Z,13.53
2018-06-24T04:06:54.813Z,13.20
2018-06-24T04:10:28.167Z,11.93
2018-06-24T04:14:01.422Z,11.20
2018-06-24T04:17:34.671Z,11.90
2018-06-24T04:21:08.244Z,11.87
2018-06-24T04:24:41.608Z,13.40
2018-06-24T04:28:14.916Z,11.47
2018-06-24T04:31:48.150Z,11.03
2018-06-24T04:35:21.419Z,11.80
2018-06-24T04:38:54.671Z,11.30
2018-06-24T04:42:27.993Z,10.60
2018-06-24T04:46:01.500Z,10.10
2018-06-24T04:49:34.779Z,9.47
2018-06-24T04:53:08.018Z,9.50
2018-06-24T04:56:41.239Z,10.50
2018-06-24T05:00:14.505Z,10.23
2018-06-24T05:03:47.748Z,9.70
2018-06-24T05:07:20.990Z,10.47
2018-06-24T05:10:54.051Z,10.40
2018-06-24T05:14:27.321Z,10.43
2018-06-24T05:18:00.554Z,9.90
2018-06-24T05:21:33.817Z,11.37
2018-06-24T05:25:07.268Z,11.23
2018-06-24T05:28:40.583Z,10.77
2018-06-24T05:32:13.915Z,10.33
2018-06-24T05:35:47.209Z,9.33
2018-06-24T05:39:20.451Z,10.60
2018-06-24T05:42:53.463Z,11.27
2018-06-24T05:46:26.893Z,9.03
2018-06-24T05:50:00.131Z,10.00
2018-06-24T05:53:33.362Z,9.40
2018-06-24T05:57:06.595Z,8.87
2018-06-24T06:00:39.866Z,8.90
2018-06-24T06:04:13.113Z,7.50
2018-06-24T06:07:46.324Z,8.90
2018-06-24T06:11:19.563Z,9.27
2018-06-24T06:14:52.828Z,9.90
2018-06-24T06:18:26.060Z,8.80
2018-06-24T06:21:59.476Z,8.67
2018-06-24T06:25:32.829Z,7.60
2018-06-24T06:29:06.062Z,8.07
2018-06-24T06:32:39.307Z,7.73
2018-06-24T06:36:12.693Z,7.37
2018-06-24T06:39:46.020Z,6.80
2018-06-24T06:43:19.270Z,8.60
2018-06-24T06:46:52.511Z,7.90
2018-06-24T06:50:26.103Z,6.07
2018-06-24T06:53:59.455Z,5.90
2018-06-24T06:57:32.984Z,6.00
2018-06-24T07:01:06.232Z,5.20
2018-06-24T07:04:39.565Z,5.00
2018-06-24T07:08:13.022Z,4.80
2018-06-24T07:11:46.291Z,5.40
2018-06-24T07:15:19.884Z,5.30
2018-06-24T07:18:52.974Z,6.37
2018-06-24T07:22:25.976Z,4.87
2018-06-24T07:26:00.097Z,4.80
2018-06-24T07:29:33.101Z,4.60
2018-06-24T07:33:06.458Z,4.10
2018-06-24T07:36:39.728Z,4.50
2018-06-24T07:40:12.972Z,5.10
2018-06-24T07:43:46.407Z,4.40
2018-06-24T07:47:19.936Z,4.63
2018-06-24T07:50:53.182Z,4.20
2018-06-24T07:54:26.613Z,5.20
2018-06-24T07:57:59.710Z,4.17
2018-06-24T08:01:33.033Z,4.43
2018-06-24T08:05:06.728Z,4.33
2018-06-24T08:08:40.024Z,3.93
2018-06-24T08:12:13.272Z,5.23
2018-06-24T08:15:46.591Z,4.77
2018-06-24T08:19:19.953Z,4.83
2018-06-24T08:22:53.923Z,4.37
2018-06-24T08:26:27.228Z,5.50
2018-06-24T08:30:00.243Z,4.07
2018-06-24T08:33:33.564Z,3.40
2018-06-24T08:37:06.887Z,4.47
2018-06-24T08:40:40.208Z,3.20
2018-06-24T08:44:13.473Z,3.43
2018-06-24T08:47:46.764Z,3.20
2018-06-24T08:51:20.041Z,2.60
2018-06-24T08:54:53.059Z,2.60
2018-06-24T08:58:26.357Z,3.83
2018-06-24T09:01:59.674Z,3.17
2018-06-24T09:05:32.964Z,3.10
2018-06-24T09:09:08.720Z,4.20
2018-06-24T09:12:41.976Z,3.43
2018-06-24T09:16:15.652Z,3.40
2018-06-24T09:19:48.947Z,2.77
2018-06-24T09:23:22.280Z,3.77
2018-06-24T09:26:55.557Z,3.30
2018-06-24T09:30:28.857Z,3.70
2018-06-24T09:34:02.197Z,4.50
2018-06-24T09:37:35.525Z,4.80
2018-06-24T09:41:08.761Z,3.57
2018-06-24T09:44:42.080Z,3.67
2018-06-24T09:48:15.398Z,3.50
2018-06-24T09:51:48.688Z,3.60
2018-06-24T09:55:22.011Z,3.23
2018-06-24T09:58:55.361Z,2.93
2018-06-24T10:02:28.636Z,3.23
2018-06-24T10:06:01.865Z,3.97
2018-06-24T10:09:35.188Z,3.10
2018-06-24T10:13:08.451Z,2.80
2018-06-24T10:16:41.733Z,2.73
2018-06-24T10:20:15.064Z,2.93
2018-06-24T10:23:48.357Z,2.53
2018-06-24T10:27:21.680Z,2.63
2018-06-24T10:30:54.940Z,2.90
2018-06-24T10:34:28.195Z,2.43
2018-06-24T10:38:01.552Z,2.87
2018-06-24T10:41:34.906Z,2.97
2018-06-24T10:45:08.177Z,2.83
2018-06-24T10:48:45.899Z,2.60
2018-06-24T10:52:19.372Z,2.70
2018-06-24T10:55:53.094Z,1.97
2018-06-24T10:59:26.563Z,2.67
2018-06-24T11:03:00.027Z,2.53
2018-06-24T11:06:33.735Z,2.90
2018-06-24T11:10:06.968Z,2.30
2018-06-24T11:13:39.969Z,2.17
2018-06-24T11:17:13.250Z,2.80
2018-06-24T11:20:46.557Z,2.33
2018-06-24T11:24:19.815Z,2.80
2018-06-24T11:27:53.075Z,2.67
2018-06-24T11:31:26.386Z,3.90
2018-06-24T11:34:59.712Z,5.43
2018-06-24T11:38:33.108Z,3.30
2018-06-24T11:42:06.464Z,2.67
2018-06-24T11:45:39.732Z,2.93
2018-06-24T11:49:13.236Z,3.33
2018-06-24T11:52:46.540Z,2.73
2018-06-24T11:56:19.840Z,2.60
2018-06-24T11:59:53.232Z,2.77
2018-06-24T12:03:26.669Z,5.70
2018-06-24T12:07:00.030Z,3.13
2018-06-24T12:10:33.452Z,2.63
2018-06-24T12:14:06.729Z,2.40
2018-06-24T12:17:40.593Z,3.20
2018-06-24T12:21:13.925Z,3.13
2018-06-24T12:24:47.199Z,2.50
2018-06-24T12:28:20.591Z,2.87
2018-06-24T12:31:54.903Z,2.27
2018-06-24T12:35:28.656Z,2.33
2018-06-24T12:39:02.298Z,1.83
2018-06-24T12:42:35.599Z,2.70
2018-06-24T12:46:08.926Z,2.97
2018-06-24T12:49:42.215Z,2.67
2018-06-24T12:53:15.515Z,2.47
2018-06-24T12:56:48.815Z,2.00
2018-06-24T13:00:22.861Z,3.07
2018-06-24T13:03:56.353Z,2.27
2018-06-24T13:07:29.716Z,2.37
2018-06-24T13:11:03.004Z,2.40
2018-06-24T13:14:36.401Z,2.40
2018-06-24T13:18:09.676Z,2.73
2018-06-24T13:21:42.936Z,2.47
2018-06-24T13:25:16.199Z,2.50
2018-06-24T13:28:49.480Z,2.60
2018-06-24T13:32:22.737Z,2.10
2018-06-24T13:35:56.053Z,2.30
2018-06-24T13:39:29.349Z,1.90
2018-06-24T13:43:02.670Z,2.50
2018-06-24T13:46:36.231Z,2.60
2018-06-24T13:50:09.650Z,2.80
2018-06-24T13:53:42.932Z,2.63
2018-06-24T13:57:16.267Z,2.60
2018-06-24T14:00:49.639Z,2.30
2018-06-24T14:04:22.976Z,3.43
2018-06-24T14:07:56.324Z,4.07
2018-06-24T14:11:30.113Z,3.30
2018-06-24T14:15:04.152Z,3.87
2018-06-24T14:18:37.433Z,4.20
2018-06-24T14:22:10.701Z,4.33
2018-06-24T14:25:43.966Z,4.40
2018-06-24T14:29:17.319Z,3.77
2018-06-24T14:32:50.621Z,4.47
2018-06-24T14:36:24.857Z,4.10
2018-06-24T14:39:58.696Z,4.40
2018-06-24T14:43:31.981Z,4.50
2018-06-24T14:47:05.236Z,4.00
2018-06-24T14:50:38.532Z,4.13
2018-06-24T14:54:11.906Z,4.50
2018-06-24T14:57:45.199Z,4.60
2018-06-24T15:01:18.523Z,6.10
2018-06-24T15:04:51.796Z,5.20
2018-06-24T15:08:25.151Z,4.47
2018-06-24T15:11:58.560Z,4.87
2018-06-24T15:15:31.942Z,4.33
2018-06-24T15:19:05.651Z,5.00
2018-06-24T15:22:38.938Z,4.60
2018-06-24T15:26:12.196Z,5.00
2018-06-24T15:29:45.635Z,4.87
2018-06-24T15:33:18.880Z,5.57
2018-06-24T15:36:52.211Z,5.57
2018-06-24T15:40:25.439Z,5.67
2018-06-24T15:43:58.690Z,6.60
2018-06-24T15:47:31.991Z,5.70
2018-06-24T15:51:05.340Z,6.43
2018-06-24T15:54:38.576Z,6.33
2018-06-24T15:58:12.010Z,5.90
2018-06-24T16:01:45.185Z,6.80
2018-06-24T16:05:18.511Z,6.63
2018-06-24T16:08:51.831Z,6.70
2018-06-24T16:12:25.074Z,5.93
2018-06-24T16:15:58.382Z,6.50
2018-06-24T16:19:31.681Z,6.37
2018-06-24T16:23:05.885Z,6.37
2018-06-24T16:26:39.426Z,7.23
2018-06-24T16:30:12.668Z,5.93
2018-06-24T16:33:45.996Z,5.97
2018-06-24T16:37:19.314Z,6.10
2018-06-24T16:40:52.551Z,5.03
2018-06-24T16:44:25.552Z,5.57
2018-06-24T16:48:00.084Z,5.20
2018-06-24T16:51:33.333Z,4.50
2018-06-24T16:55:06.697Z,4.70
2018-06-24T16:58:40.399Z,5.50
2018-06-24T17:02:13.103Z,4.53
2018-06-24T17:05:46.397Z,4.43
2018-06-24T17:09:19.735Z,4.40
2018-06-24T17:12:53.000Z,5.90
2018-06-24T17:16:26.320Z,5.70
2018-06-24T17:19:59.615Z,4.93
2018-06-24T17:23:32.856Z,4.60
2018-06-24T17:27:06.811Z,4.17
2018-06-24T17:30:39.790Z,4.90
2018-06-24T17:34:13.040Z,5.20
2018-06-24T17:37:46.895Z,4.10
2018-06-24T17:41:20.160Z,4.20
2018-06-24T17:44:53.468Z,4.83
2018-06-24T17:48:26.725Z,4.07
2018-06-24T17:52:00.019Z,4.40
2018-06-24T17:55:33.035Z,5.00
2018-06-24T17:59:06.335Z,4.53
2018-06-24T18:02:39.652Z,3.80
2018-06-24T18:06:13.413Z,3.40
2018-06-24T18:09:46.736Z,10.20
2018-06-24T18:13:19.779Z,5.97
2018-06-24T18:16:54.516Z,3.97
2018-06-24T18:20:27.928Z,4.70
2018-06-24T18:24:01.244Z,4.00
2018-06-24T18:27:34.455Z,3.23
2018-06-24T18:31:07.754Z,3.07
2018-06-24T18:34:41.010Z,3.53
2018-06-24T18:38:14.281Z,3.70
2018-06-24T18:41:47.612Z,4.10
2018-06-24T18:45:20.975Z,4.40
2018-06-24T18:48:54.252Z,3.97
2018-06-24T18:52:27.295Z,3.93
2018-06-24T18:56:00.791Z,3.60
2018-06-24T18:59:34.603Z,3.87
2018-06-24T19:03:07.885Z,3.23
2018-06-24T19:06:40.906Z,4.27
2018-06-24T19:10:14.211Z,4.30
2018-06-24T19:13:47.459Z,3.50
2018-06-24T19:17:20.840Z,3.63
2018-06-24T19:20:54.120Z,4.57
2018-06-24T19:24:28.108Z,4.57
2018-06-24T19:28:01.413Z,4.90
2018-06-24T19:31:34.707Z,4.37
2018-06-24T19:35:07.984Z,4.17
2018-06-24T19:38:41.229Z,4.57
2018-06-24T19:42:14.976Z,3.73
2018-06-24T19:45:48.225Z,3.60
2018-06-24T19:49:21.542Z,2.90
2018-06-24T19:52:54.972Z,3.30
2018-06-24T19:56:28.308Z,3.87
2018-06-24T20:00:01.773Z,2.40
2018-06-24T20:03:35.415Z,2.77
2018-06-24T20:07:09.492Z,3.40
2018-06-24T20:10:42.767Z,2.50
2018-06-24T20:14:16.336Z,2.67
2018-06-24T20:17:50.048Z,2.70
2018-06-24T20:21:23.467Z,3.63
2018-06-24T20:24:56.723Z,3.30
2018-06-24T20:28:30.047Z,2.83
2018-06-24T20:32:03.351Z,3.00
2018-06-24T20:35:36.645Z,3.37
2018-06-24T20:39:10.212Z,3.37
2018-06-24T20:42:43.875Z,2.50
2018-06-24T20:46:17.160Z,2.83
2018-06-24T20:49:50.608Z,2.60
2018-06-24T20:53:24.090Z,2.40
2018-06-24T20:56:57.461Z,2.33
2018-06-24T21:00:30.748Z,2.70
2018-06-24T21:04:04.383Z,3.53
2018-06-24T21:07:37.619Z,1.90
2018-06-24T21:11:10.649Z,3.07
2018-06-24T21:14:43.895Z,2.73
2018-06-24T21:18:17.191Z,2.77
2018-06-24T21:21:50.449Z,2.63
2018-06-24T21:25:23.715Z,2.97
2018-06-24T21:28:57.327Z,3.20
2018-06-24T21:32:31.236Z,3.10
2018-06-24T21:36:04.572Z,2.87
2018-06-24T21:39:37.858Z,2.87
2018-06-24T21:43:11.240Z,3.20
2018-06-24T21:46:44.568Z,3.40
2018-06-24T21:50:17.806Z,3.50
2018-06-24T21:53:51.063Z,3.50
2018-06-24T21:57:24.385Z,3.43
2018-06-24T22:00:57.625Z,3.00
2018-06-24T22:04:30.866Z,2.67
2018-06-24T22:08:04.148Z,2.40
2018-06-24T22:11:37.482Z,3.13
2018-06-24T22:15:10.704Z,3.03
2018-06-24T22:18:43.940Z,3.33
2018-06-24T22:22:16.927Z,2.93
2018-06-24T22:25:49.911Z,2.83
2018-06-24T22:29:23.152Z,2.83
2018-06-24T22:32:56.408Z,3.00
2018-06-24T22:36:29.720Z,2.70
2018-06-24T22:40:02.960Z,2.60
2018-06-24T22:43:36.251Z,2.97
2018-06-24T22:47:09.500Z,3.07
2018-06-24T22:50:42.750Z,2.70
2018-06-24T22:54:16.019Z,2.93
2018-06-24T22:57:49.273Z,3.10
2018-06-24T23:01:22.990Z,2.40
2018-06-24T23:04:56.287Z,2.53
2018-06-24T23:08:29.536Z,2.80
2018-06-24T23:12:02.858Z,2.63
2018-06-24T23:15:36.087Z,3.10
2018-06-24T23:19:09.347Z,3.10
2018-06-24T23:22:42.575Z,2.87
2018-06-24T23:26:15.824Z,2.67
2018-06-24T23:29:49.474Z,2.43
2018-06-24T23:33:22.742Z,2.97
2018-06-24T23:36:55.728Z,2.60
2018-06-24T23:40:28.972Z,3.17
2018-06-24T23:44:02.259Z,2.67
2018-06-24T23:47:35.764Z,3.33
2018-06-24T23:51:09.115Z,3.00
2018-06-24T23:54:42.390Z,3.40
2018-06-24T23:58:15.632Z,3.27
